Time;durP1;ratioP1;P1;durP2;ratioP2;P2;SDS_P1;SDS_P2;PMS_P1;PMS_P2;Temp;Humidity;BMP_temperature;BMP_pressure;BME280_temperature;BME280_humidity;BME280_pressure;Samples;Min_cycle;Max_cycle;Signal;HPM_P1;HPM_P2
2023/02/24 00:00:33;;;;;;;1.83;1.73;;;;;;;;;;5022105;28;20245;-82
2023/02/24 00:03:09;;;;;;;1.48;1.38;;;;;;;;;;5025280;28;20217;-81
2023/02/24 00:05:43;;;;;;;1.45;1.35;;;;;;;;;;5023998;28;20277;-83
2023/02/24 00:08:12;;;;;;;0.80;0.70;;;;;;;;;;5022790;28;20316;-83
2023/02/24 00:10:40;;;;;;;1.20;1.10;;;;;;;;;;5026759;28;20230;-83
2023/02/24 00:13:07;;;;;;;1.65;1.55;;;;;;;;;;5023475;28;20260;-82
2023/02/24 00:15:35;;;;;;;1.02;0.98;;;;;;;;;;5024308;28;20286;-83
2023/02/24 00:18:05;;;;;;;1.20;1.10;;;;;;;;;;5023521;28;20238;-82
2023/02/24 00:20:33;;;;;;;0.80;0.80;;;;;;;;;;5022266;28;20248;-81
2023/02/24 00:23:01;;;;;;;1.27;1.17;;;;;;;;;;5023316;28;20255;-83
2023/02/24 00:25:30;;;;;;;1.13;1.02;;;;;;;;;;5025954;28;20231;-84
2023/02/24 00:28:00;;;;;;;1.40;1.30;;;;;;;;;;5024650;28;20701;-83
2023/02/24 00:30:30;;;;;;;0.85;0.85;;;;;;;;;;5024481;28;20229;-84
2023/02/24 00:33:00;;;;;;;0.80;0.80;;;;;;;;;;5024629;28;20235;-82
2023/02/24 00:35:29;;;;;;;1.40;1.30;;;;;;;;;;5024536;28;20328;-83
2023/02/24 00:37:57;;;;;;;1.45;1.35;;;;;;;;;;5025275;28;20244;-81
2023/02/24 00:40:25;;;;;;;0.80;0.80;;;;;;;;;;5025047;28;20596;-84
2023/02/24 00:42:56;;;;;;;0.98;0.98;;;;;;;;;;5025607;28;20254;-81
2023/02/24 00:45:29;;;;;;;1.85;1.75;;;;;;;;;;5025122;28;20317;-83
2023/02/24 00:48:09;;;;;;;1.63;1.52;;;;;;;;;;5012274;28;20239;-82
2023/02/24 00:53:28;;;;;;;1.08;1.08;;;;;;;;;;5008457;28;20312;-82
2023/02/24 00:56:00;;;;;;;1.13;1.05;;;;;;;;;;5008064;28;20341;-84
2023/02/24 00:58:30;;;;;;;0.88;0.88;;;;;;;;;;5009052;28;20273;-83
2023/02/24 01:00:59;;;;;;;0.90;0.90;;;;;;;;;;5008813;28;20259;-83
2023/02/24 01:03:30;;;;;;;0.70;0.70;;;;;;;;;;5008516;28;20233;-82
2023/02/24 01:06:02;;;;;;;0.75;0.75;;;;;;;;;;5009501;28;20250;-83
2023/02/24 01:08:35;;;;;;;1.10;1.10;;;;;;;;;;5009586;28;20323;-82
2023/02/24 01:13:49;;;;;;;0.95;0.95;;;;;;;;;;5007051;28;20244;-83
2023/02/24 01:16:18;;;;;;;1.92;1.83;;;;;;;;;;5009325;28;20579;-84
2023/02/24 01:18:54;;;;;;;1.23;1.13;;;;;;;;;;5008025;28;20324;-84
2023/02/24 01:21:23;;;;;;;0.93;0.82;;;;;;;;;;5009977;28;20650;-83
2023/02/24 01:23:52;;;;;;;1.00;0.90;;;;;;;;;;5008722;28;20292;-84
2023/02/24 01:26:20;;;;;;;1.10;1.00;;;;;;;;;;5010040;28;20261;-83
2023/02/24 01:28:49;;;;;;;0.80;0.70;;;;;;;;;;5008364;28;20560;-83
2023/02/24 01:31:19;;;;;;;1.15;1.05;;;;;;;;;;5010578;28;20228;-84
2023/02/24 01:33:47;;;;;;;1.10;1.00;;;;;;;;;;5009849;28;20269;-84
2023/02/24 01:36:18;;;;;;;0.80;0.80;;;;;;;;;;5008866;28;20238;-83
2023/02/24 01:38:46;;;;;;;0.80;0.80;;;;;;;;;;5010641;28;20612;-83
2023/02/24 01:41:15;;;;;;;1.02;1.02;;;;;;;;;;5007927;28;20257;-83
2023/02/24 01:43:58;;;;;;;1.05;0.95;;;;;;;;;;5010606;28;20244;-84
2023/02/24 01:46:33;;;;;;;1.17;1.08;;;;;;;;;;5007105;28;20242;-83
2023/02/24 01:49:09;;;;;;;0.90;0.90;;;;;;;;;;5008422;28;20272;-82
2023/02/24 01:51:41;;;;;;;0.80;0.80;;;;;;;;;;5007624;28;20240;-82
2023/02/24 01:54:11;;;;;;;1.13;1.02;;;;;;;;;;5007910;28;20214;-82
2023/02/24 01:56:40;;;;;;;1.15;1.05;;;;;;;;;;5008169;28;20234;-83
2023/02/24 01:59:10;;;;;;;1.23;1.13;;;;;;;;;;5006926;28;20228;-81
2023/02/24 02:01:41;;;;;;;1.20;1.13;;;;;;;;;;5007568;28;20255;-82
2023/02/24 02:04:15;;;;;;;0.90;0.90;;;;;;;;;;5008841;28;20582;-83
2023/02/24 02:06:44;;;;;;;1.17;1.08;;;;;;;;;;5007564;28;20233;-81
2023/02/24 02:09:14;;;;;;;1.10;1.00;;;;;;;;;;5009117;28;20523;-80
2023/02/24 02:11:41;;;;;;;1.90;1.80;;;;;;;;;;5008870;28;20233;-83
2023/02/24 02:14:10;;;;;;;1.55;1.45;;;;;;;;;;5007670;28;20609;-83
2023/02/24 02:16:46;;;;;;;1.35;1.25;;;;;;;;;;5010406;28;20229;-81
2023/02/24 02:19:27;;;;;;;1.00;0.90;;;;;;;;;;5008227;28;20233;-83
2023/02/24 02:22:15;;;;;;;0.90;0.90;;;;;;;;;;5009569;28;20255;-82
2023/02/24 02:24:49;;;;;;;1.90;1.80;;;;;;;;;;5009695;28;20239;-82
2023/02/24 02:27:34;;;;;;;1.13;1.02;;;;;;;;;;5007661;28;20230;-82
2023/02/24 02:30:19;;;;;;;1.25;1.15;;;;;;;;;;5008247;28;20236;-83
2023/02/24 02:32:51;;;;;;;1.25;1.15;;;;;;;;;;5008160;28;20227;-82
2023/02/24 02:35:22;;;;;;;1.85;1.75;;;;;;;;;;5006075;28;20226;-84
2023/02/24 02:37:55;;;;;;;0.80;0.80;;;;;;;;;;5009122;28;20291;-84
2023/02/24 02:40:25;;;;;;;0.70;0.68;;;;;;;;;;5005196;28;20619;-84
2023/02/24 02:42:56;;;;;;;0.77;0.70;;;;;;;;;;5009589;28;20245;-83
2023/02/24 02:45:26;;;;;;;2.25;2.15;;;;;;;;;;5008378;28;20224;-83
2023/02/24 02:47:57;;;;;;;0.80;0.80;;;;;;;;;;5008874;28;20223;-84
2023/02/24 02:50:28;;;;;;;2.10;2.00;;;;;;;;;;5007747;28;20229;-83
2023/02/24 02:52:58;;;;;;;0.82;0.80;;;;;;;;;;5007928;28;20525;-83
2023/02/24 02:55:30;;;;;;;0.80;0.70;;;;;;;;;;5005899;28;20250;-82
2023/02/24 02:58:02;;;;;;;0.80;0.70;;;;;;;;;;5004892;28;20625;-81
2023/02/24 03:00:34;;;;;;;0.88;0.77;;;;;;;;;;5004955;28;20236;-83
2023/02/24 03:03:04;;;;;;;0.80;0.70;;;;;;;;;;5005689;28;20246;-84
2023/02/24 03:05:37;;;;;;;1.50;1.40;;;;;;;;;;5006336;28;20227;-84
2023/02/24 03:08:10;;;;;;;2.72;2.53;;;;;;;;;;5007071;28;20282;-82
2023/02/24 03:10:38;;;;;;;1.77;1.67;;;;;;;;;;5007294;28;20236;-81
2023/02/24 03:13:06;;;;;;;1.00;0.90;;;;;;;;;;5004123;28;20211;-83
2023/02/24 03:15:35;;;;;;;0.82;0.80;;;;;;;;;;5006692;28;20231;-82
2023/02/24 03:18:08;;;;;;;1.88;1.77;;;;;;;;;;5005946;28;20234;-83
2023/02/24 03:20:40;;;;;;;0.93;0.90;;;;;;;;;;5007903;28;20234;-81
2023/02/24 03:23:15;;;;;;;0.80;0.70;;;;;;;;;;5004049;28;20330;-80
2023/02/24 03:25:48;;;;;;;1.48;1.38;;;;;;;;;;5006347;28;20237;-80
2023/02/24 03:28:17;;;;;;;1.20;1.13;;;;;;;;;;5005122;28;20285;-83
2023/02/24 03:30:45;;;;;;;0.90;0.90;;;;;;;;;;5005077;28;20233;-82
2023/02/24 03:33:18;;;;;;;1.20;1.10;;;;;;;;;;5005278;28;20659;-83
2023/02/24 03:35:50;;;;;;;1.17;1.08;;;;;;;;;;5006646;28;20246;-83
2023/02/24 03:38:18;;;;;;;1.10;1.00;;;;;;;;;;5007419;28;20240;-84
2023/02/24 03:40:46;;;;;;;1.08;1.00;;;;;;;;;;5005165;28;20277;-84
2023/02/24 03:43:18;;;;;;;0.70;0.70;;;;;;;;;;5007255;28;20260;-80
2023/02/24 03:45:51;;;;;;;0.93;0.93;;;;;;;;;;5007130;28;20232;-83
2023/02/24 03:48:19;;;;;;;1.35;1.25;;;;;;;;;;5004836;28;20577;-84
2023/02/24 03:50:49;;;;;;;1.15;1.05;;;;;;;;;;5008450;28;20234;-84
2023/02/24 03:53:32;;;;;;;1.27;1.17;;;;;;;;;;5003852;28;20303;-83
2023/02/24 03:56:04;;;;;;;1.40;1.33;;;;;;;;;;5006631;28;20476;-83
2023/02/24 03:58:40;;;;;;;0.93;0.88;;;;;;;;;;5003905;28;20241;-81
2023/02/24 04:01:11;;;;;;;2.28;2.15;;;;;;;;;;5004716;28;20502;-83
2023/02/24 04:03:43;;;;;;;1.40;1.30;;;;;;;;;;5005668;28;20575;-83
2023/02/24 04:06:14;;;;;;;1.10;1.00;;;;;;;;;;5004690;28;20229;-82
2023/02/24 04:08:43;;;;;;;1.13;1.02;;;;;;;;;;5005955;28;20318;-83
2023/02/24 04:11:15;;;;;;;2.35;2.25;;;;;;;;;;5005335;28;20268;-82
2023/02/24 04:13:46;;;;;;;1.13;1.02;;;;;;;;;;5005841;28;20573;-81
2023/02/24 04:16:17;;;;;;;1.52;1.42;;;;;;;;;;5004271;28;20243;-83
2023/02/24 04:18:48;;;;;;;1.35;1.25;;;;;;;;;;5004349;28;20325;-83
2023/02/24 04:21:18;;;;;;;0.70;0.70;;;;;;;;;;5003542;28;20650;-82
2023/02/24 04:23:47;;;;;;;1.42;1.33;;;;;;;;;;5005782;28;20297;-84
2023/02/24 04:26:17;;;;;;;1.15;1.05;;;;;;;;;;5003896;28;20241;-83
2023/02/24 04:28:47;;;;;;;1.08;0.98;;;;;;;;;;5005604;28;20233;-82
2023/02/24 04:31:16;;;;;;;0.80;0.80;;;;;;;;;;5003338;28;20263;-82
2023/02/24 04:33:44;;;;;;;1.35;1.25;;;;;;;;;;5005966;28;20299;-81
2023/02/24 04:36:12;;;;;;;2.15;2.05;;;;;;;;;;5005703;28;20260;-84
2023/02/24 04:38:41;;;;;;;1.55;1.45;;;;;;;;;;5004029;28;20546;-82
2023/02/24 04:41:09;;;;;;;0.80;0.80;;;;;;;;;;5005921;28;20567;-83
2023/02/24 04:43:37;;;;;;;1.00;0.90;;;;;;;;;;5003666;28;20508;-83
2023/02/24 04:46:06;;;;;;;1.38;1.27;;;;;;;;;;5004727;28;20233;-83
2023/02/24 04:48:34;;;;;;;1.25;1.15;;;;;;;;;;5002795;28;20242;-82
2023/02/24 04:51:05;;;;;;;1.17;1.08;;;;;;;;;;5002118;28;20235;-83
2023/02/24 04:53:35;;;;;;;1.02;0.93;;;;;;;;;;5004035;28;20515;-83
2023/02/24 04:56:07;;;;;;;1.15;1.05;;;;;;;;;;5004368;28;20230;-83
2023/02/24 04:58:36;;;;;;;1.58;1.48;;;;;;;;;;5003990;28;20236;-84
2023/02/24 05:01:09;;;;;;;0.80;0.70;;;;;;;;;;5005490;28;20248;-82
2023/02/24 05:03:37;;;;;;;1.33;1.23;;;;;;;;;;5004699;28;20246;-82
2023/02/24 05:06:07;;;;;;;1.00;0.90;;;;;;;;;;5003869;28;20618;-83
2023/02/24 05:08:37;;;;;;;1.10;1.00;;;;;;;;;;5003293;28;20239;-82
2023/02/24 05:11:07;;;;;;;0.80;0.70;;;;;;;;;;5002568;28;20233;-83
2023/02/24 05:13:36;;;;;;;0.95;0.85;;;;;;;;;;5002856;28;20551;-84
2023/02/24 05:16:06;;;;;;;1.10;1.00;;;;;;;;;;5003174;28;20257;-83
2023/02/24 05:18:35;;;;;;;1.63;1.52;;;;;;;;;;5003699;28;20234;-83
2023/02/24 05:23:52;;;;;;;0.95;0.88;;;;;;;;;;5005451;28;20263;-83
2023/02/24 05:26:24;;;;;;;1.25;1.15;;;;;;;;;;5006476;28;20277;-83
2023/02/24 05:28:53;;;;;;;1.00;0.90;;;;;;;;;;5003644;28;20226;-81
2023/02/24 05:31:24;;;;;;;0.80;0.70;;;;;;;;;;5003455;28;20239;-82
2023/02/24 05:33:54;;;;;;;1.10;1.00;;;;;;;;;;5002470;28;20274;-83
2023/02/24 05:36:23;;;;;;;0.95;0.85;;;;;;;;;;5005331;28;20228;-82
2023/02/24 05:38:54;;;;;;;1.52;1.42;;;;;;;;;;5009735;28;20232;-83
2023/02/24 05:41:24;;;;;;;1.00;0.90;;;;;;;;;;5008706;28;20231;-83
2023/02/24 05:43:53;;;;;;;0.80;0.80;;;;;;;;;;5008241;28;20258;-82
2023/02/24 05:46:26;;;;;;;1.13;1.02;;;;;;;;;;5008467;28;20607;-82
2023/02/24 05:48:56;;;;;;;1.55;1.45;;;;;;;;;;5007917;28;20578;-83
2023/02/24 05:51:24;;;;;;;1.63;1.52;;;;;;;;;;5006377;28;20235;-81
2023/02/24 05:53:54;;;;;;;0.80;0.73;;;;;;;;;;5007767;28;20286;-83
2023/02/24 05:56:24;;;;;;;0.90;0.80;;;;;;;;;;5006570;28;20248;-84
2023/02/24 05:59:00;;;;;;;1.60;1.50;;;;;;;;;;5006606;28;20240;-83
2023/02/24 06:01:29;;;;;;;1.75;1.65;;;;;;;;;;5006124;28;20263;-83
2023/02/24 06:04:02;;;;;;;1.13;1.02;;;;;;;;;;5006595;28;20228;-83
2023/02/24 06:06:33;;;;;;;1.10;1.00;;;;;;;;;;5006484;28;20220;-83
2023/02/24 06:09:06;;;;;;;0.80;0.80;;;;;;;;;;5005630;28;20233;-82
2023/02/24 06:11:36;;;;;;;1.27;1.17;;;;;;;;;;5006153;28;20232;-84
2023/02/24 06:14:05;;;;;;;1.23;1.13;;;;;;;;;;5003244;28;20298;-83
2023/02/24 06:16:33;;;;;;;1.35;1.25;;;;;;;;;;5006924;28;20615;-84
2023/02/24 06:19:01;;;;;;;0.80;0.80;;;;;;;;;;5004593;28;20232;-80
2023/02/24 06:21:30;;;;;;;1.40;1.30;;;;;;;;;;4986688;28;20298;-83
2023/02/24 06:23:58;;;;;;;1.52;1.42;;;;;;;;;;4986808;28;20586;-83
2023/02/24 06:26:28;;;;;;;1.98;1.88;;;;;;;;;;5002158;28;20244;-83
2023/02/24 06:28:59;;;;;;;1.27;1.17;;;;;;;;;;5004736;28;20285;-80
2023/02/24 06:31:27;;;;;;;2.28;2.17;;;;;;;;;;5002478;28;20229;-83
2023/02/24 06:33:55;;;;;;;1.00;1.00;;;;;;;;;;5005373;28;20226;-82
2023/02/24 06:36:24;;;;;;;2.00;1.90;;;;;;;;;;5003599;28;20466;-80
2023/02/24 06:38:51;;;;;;;1.13;1.02;;;;;;;;;;5008119;28;20259;-83
2023/02/24 06:41:20;;;;;;;2.00;1.90;;;;;;;;;;4984711;28;20257;-82
2023/02/24 06:43:51;;;;;;;1.38;1.27;;;;;;;;;;4985599;28;20273;-82
2023/02/24 06:46:22;;;;;;;1.63;1.52;;;;;;;;;;4982394;28;20259;-82
2023/02/24 06:48:49;;;;;;;1.15;1.05;;;;;;;;;;4984993;28;20284;-82
2023/02/24 06:51:20;;;;;;;1.63;1.52;;;;;;;;;;4992108;28;20628;-81
2023/02/24 06:53:49;;;;;;;3.45;3.25;;;;;;;;;;5003832;28;20225;-82
2023/02/24 06:56:18;;;;;;;1.38;1.27;;;;;;;;;;5003694;28;20287;-82
2023/02/24 06:58:49;;;;;;;2.92;2.75;;;;;;;;;;4999328;28;20225;-81
2023/02/24 07:01:18;;;;;;;1.30;1.20;;;;;;;;;;5003848;28;20231;-83
2023/02/24 07:04:02;;;;;;;1.77;1.67;;;;;;;;;;5000097;28;20253;-82
2023/02/24 07:06:37;;;;;;;1.52;1.42;;;;;;;;;;5003238;28;20245;-82
2023/02/24 07:09:06;;;;;;;2.58;2.47;;;;;;;;;;5001032;28;20235;-80
2023/02/24 07:11:34;;;;;;;2.45;2.35;;;;;;;;;;5004112;28;20233;-83
2023/02/24 07:14:04;;;;;;;1.67;1.58;;;;;;;;;;4984885;28;20233;-82
2023/02/24 07:16:33;;;;;;;1.00;0.90;;;;;;;;;;4995504;28;20231;-82
2023/02/24 07:19:03;;;;;;;1.45;1.35;;;;;;;;;;4993759;28;20297;-80
2023/02/24 07:21:38;;;;;;;1.88;1.77;;;;;;;;;;5003319;28;20617;-80
2023/02/24 07:24:07;;;;;;;2.45;2.35;;;;;;;;;;5004466;28;20258;-81
2023/02/24 07:26:40;;;;;;;2.38;2.28;;;;;;;;;;5003347;28;20239;-82
2023/02/24 07:29:13;;;;;;;1.75;1.65;;;;;;;;;;4998280;28;20235;-82
2023/02/24 07:31:41;;;;;;;1.80;1.70;;;;;;;;;;4994062;28;20228;-82
2023/02/24 07:34:13;;;;;;;3.40;3.20;;;;;;;;;;5003967;28;20236;-82
2023/02/24 07:36:51;;;;;;;2.50;2.40;;;;;;;;;;5001803;28;20231;-83
2023/02/24 07:39:24;;;;;;;2.30;2.20;;;;;;;;;;5002544;28;20229;-83
2023/02/24 07:47:52;;;;;;;1.45;1.35;;;;;;;;;;5002859;28;20222;-84
2023/02/24 07:50:21;;;;;;;1.98;1.88;;;;;;;;;;5000266;28;20239;-83
2023/02/24 07:52:50;;;;;;;2.10;2.00;;;;;;;;;;4998949;28;20229;-81
2023/02/24 07:55:22;;;;;;;2.83;2.67;;;;;;;;;;4996130;28;20623;-82
2023/02/24 07:57:50;;;;;;;1.60;1.50;;;;;;;;;;4999355;28;20232;-82
2023/02/24 08:00:18;;;;;;;3.58;3.38;;;;;;;;;;4998578;28;20248;-82
2023/02/24 08:02:50;;;;;;;3.72;3.53;;;;;;;;;;5001514;28;20243;-79
2023/02/24 08:05:19;;;;;;;1.25;1.15;;;;;;;;;;5003178;28;20247;-78
2023/02/24 08:07:51;;;;;;;3.40;3.20;;;;;;;;;;5003250;28;20283;-79
2023/02/24 08:10:24;;;;;;;2.08;1.98;;;;;;;;;;5004754;28;20229;-79
2023/02/24 08:13:01;;;;;;;2.42;2.33;;;;;;;;;;5003227;28;20740;-83
2023/02/24 08:15:35;;;;;;;3.00;2.85;;;;;;;;;;4993939;28;20261;-83
2023/02/24 08:18:08;;;;;;;2.88;2.67;;;;;;;;;;5001318;28;20242;-81
2023/02/24 08:20:51;;;;;;;1.70;1.60;;;;;;;;;;5002017;28;20676;-82
2023/02/24 08:23:25;;;;;;;3.50;3.30;;;;;;;;;;5002840;28;20562;-82
2023/02/24 08:25:53;;;;;;;2.45;2.35;;;;;;;;;;5004605;28;20253;-83
2023/02/24 08:28:43;;;;;;;1.90;1.80;;;;;;;;;;4994357;28;20290;-83
2023/02/24 08:31:19;;;;;;;3.83;3.60;;;;;;;;;;4993335;28;20230;-81
2023/02/24 08:33:55;;;;;;;2.58;2.47;;;;;;;;;;5002339;28;20253;-82
2023/02/24 08:36:24;;;;;;;3.47;3.28;;;;;;;;;;4994844;28;20240;-81
2023/02/24 08:38:58;;;;;;;1.90;1.80;;;;;;;;;;4993180;28;20278;-81
2023/02/24 08:44:12;;;;;;;2.50;2.40;;;;;;;;;;5002980;28;20522;-82
2023/02/24 08:46:42;;;;;;;1.80;1.70;;;;;;;;;;5002365;28;20216;-83
2023/02/24 08:49:11;;;;;;;1.88;1.77;;;;;;;;;;5000136;28;20823;-83
2023/02/24 08:51:42;;;;;;;2.83;2.63;;;;;;;;;;5002981;28;20541;-81
2023/02/24 08:54:15;;;;;;;3.15;2.95;;;;;;;;;;5000906;28;20788;-82
2023/02/24 08:56:47;;;;;;;2.45;2.35;;;;;;;;;;5003050;28;20231;-82
2023/02/24 08:59:36;;;;;;;3.42;3.22;;;;;;;;;;4994355;28;20242;-82
2023/02/24 09:05:03;;;;;;;2.10;2.00;;;;;;;;;;4939388;29;20207;-75
2023/02/24 09:07:34;;;;;;;3.92;3.72;;;;;;;;;;4983685;28;20303;-81
2023/02/24 09:10:04;;;;;;;3.10;2.95;;;;;;;;;;5001303;28;20229;-81
2023/02/24 09:12:40;;;;;;;4.03;3.83;;;;;;;;;;4999285;28;20748;-82
2023/02/24 09:15:14;;;;;;;1.90;1.80;;;;;;;;;;5002927;28;20240;-82
2023/02/24 09:17:49;;;;;;;1.45;1.35;;;;;;;;;;4993746;28;20247;-81
2023/02/24 09:23:28;;;;;;;1.63;1.52;;;;;;;;;;4975070;28;20233;-81
2023/02/24 09:26:09;;;;;;;1.48;1.38;;;;;;;;;;5003878;28;20296;-81
2023/02/24 09:28:53;;;;;;;1.60;1.50;;;;;;;;;;5004258;28;20237;-79
2023/02/24 09:31:39;;;;;;;1.88;1.77;;;;;;;;;;4995764;28;20232;-79
2023/02/24 09:37:04;;;;;;;3.20;3.00;;;;;;;;;;5006941;28;20239;-81
2023/02/24 09:40:30;;;;;;;1.50;1.40;;;;;;;;;;5011649;28;20247;-81
2023/02/24 09:42:57;;;;;;;2.80;2.70;;;;;;;;;;5021596;28;20225;-81
2023/02/24 09:45:32;;;;;;;2.15;2.05;;;;;;;;;;5023218;28;20537;-81
2023/02/24 09:48:09;;;;;;;1.35;1.25;;;;;;;;;;5029080;28;20273;-82
2023/02/24 09:50:59;;;;;;;1.65;1.55;;;;;;;;;;5028567;28;20314;-84
2023/02/24 09:53:37;;;;;;;2.22;2.13;;;;;;;;;;5025871;28;20250;-83
2023/02/24 09:56:09;;;;;;;3.03;2.92;;;;;;;;;;5028623;28;20249;-82
2023/02/24 09:58:46;;;;;;;2.58;2.47;;;;;;;;;;5019789;28;20283;-83
2023/02/24 10:01:32;;;;;;;2.90;2.80;;;;;;;;;;5029455;28;20317;-82
2023/02/24 10:04:20;;;;;;;1.88;1.77;;;;;;;;;;5024573;28;20250;-83
2023/02/24 10:06:54;;;;;;;1.60;1.50;;;;;;;;;;5021974;28;20255;-81
2023/02/24 10:09:32;;;;;;;1.85;1.75;;;;;;;;;;5019222;28;20219;-81
2023/02/24 10:12:04;;;;;;;2.38;2.28;;;;;;;;;;5025516;28;20229;-83
2023/02/24 10:14:38;;;;;;;2.88;2.75;;;;;;;;;;5029086;28;20231;-80
2023/02/24 10:17:22;;;;;;;1.63;1.52;;;;;;;;;;5024298;28;20235;-80
2023/02/24 10:19:55;;;;;;;3.35;3.15;;;;;;;;;;5024402;28;20534;-81
2023/02/24 10:22:33;;;;;;;2.70;2.60;;;;;;;;;;5022347;28;20306;-82
2023/02/24 10:25:10;;;;;;;2.05;1.95;;;;;;;;;;5022939;28;20256;-82
2023/02/24 10:27:43;;;;;;;2.30;2.20;;;;;;;;;;5023606;28;20232;-82
2023/02/24 10:30:18;;;;;;;2.70;2.60;;;;;;;;;;5022111;28;20228;-83
2023/02/24 10:32:49;;;;;;;4.15;3.95;;;;;;;;;;5023395;28;20551;-82
2023/02/24 10:35:18;;;;;;;2.35;2.25;;;;;;;;;;5019509;28;20650;-81
2023/02/24 10:37:48;;;;;;;2.30;2.20;;;;;;;;;;5026265;28;20290;-82
2023/02/24 10:40:25;;;;;;;5.03;4.82;;;;;;;;;;5022605;28;20232;-80
2023/02/24 10:43:09;;;;;;;2.47;2.38;;;;;;;;;;5025784;28;20234;-83
2023/02/24 10:45:43;;;;;;;2.30;2.20;;;;;;;;;;5022623;28;20231;-83
2023/02/24 10:48:11;;;;;;;2.65;2.55;;;;;;;;;;5024366;28;20229;-82
2023/02/24 10:50:43;;;;;;;3.20;3.10;;;;;;;;;;5023257;28;20222;-82
2023/02/24 10:53:33;;;;;;;2.25;2.15;;;;;;;;;;5014431;28;20256;-82
2023/02/24 10:59:19;;;;;;;3.13;3.03;;;;;;;;;;5004352;28;20239;-81
2023/02/24 11:01:58;;;;;;;1.90;1.80;;;;;;;;;;5006092;28;20272;-81
2023/02/24 11:04:52;;;;;;;2.83;2.72;;;;;;;;;;5009441;28;20313;-81
2023/02/24 11:07:42;;;;;;;2.00;1.90;;;;;;;;;;5023657;28;20569;-82
2023/02/24 11:10:13;;;;;;;2.88;2.78;;;;;;;;;;5023005;28;20269;-83
2023/02/24 11:18:21;;;;;;;1.80;1.70;;;;;;;;;;5027240;28;20217;-81
2023/02/24 11:20:55;;;;;;;1.75;1.65;;;;;;;;;;5027226;28;20291;-83
2023/02/24 11:23:27;;;;;;;2.80;2.70;;;;;;;;;;5025931;28;20361;-83
2023/02/24 11:25:57;;;;;;;2.03;1.92;;;;;;;;;;5029068;28;20916;-83
2023/02/24 11:28:33;;;;;;;2.55;2.45;;;;;;;;;;5023154;28;20242;-82
2023/02/24 11:31:06;;;;;;;2.40;2.30;;;;;;;;;;5022938;28;20263;-81
2023/02/24 11:33:41;;;;;;;1.75;1.65;;;;;;;;;;5020347;28;20640;-82
2023/02/24 11:36:13;;;;;;;2.20;2.10;;;;;;;;;;5004434;28;20760;-79
2023/02/24 11:38:46;;;;;;;2.85;2.75;;;;;;;;;;5004871;28;20222;-83
2023/02/24 11:41:20;;;;;;;2.47;2.38;;;;;;;;;;5025152;28;20607;-82
2023/02/24 11:43:52;;;;;;;2.72;2.63;;;;;;;;;;5009672;28;20233;-79
2023/02/24 11:46:25;;;;;;;2.05;1.95;;;;;;;;;;5022594;28;20241;-82
2023/02/24 11:48:56;;;;;;;2.42;2.33;;;;;;;;;;5017643;28;20216;-81
2023/02/24 11:51:27;;;;;;;2.42;2.33;;;;;;;;;;5003857;28;20241;-83
2023/02/24 11:53:56;;;;;;;3.40;3.30;;;;;;;;;;5007311;28;20279;-81
2023/02/24 11:56:26;;;;;;;1.73;1.67;;;;;;;;;;5006404;28;20229;-79
2023/02/24 11:58:55;;;;;;;3.10;3.00;;;;;;;;;;5005407;28;20294;-80
2023/02/24 12:01:26;;;;;;;1.27;1.27;;;;;;;;;;5006450;28;20226;-82
2023/02/24 12:04:02;;;;;;;0.77;0.77;;;;;;;;;;5024692;28;20239;-81
2023/02/24 12:06:37;;;;;;;2.60;2.50;;;;;;;;;;5023851;28;20256;-82
2023/02/24 12:09:09;;;;;;;2.95;2.85;;;;;;;;;;5014283;28;20245;-83
2023/02/24 12:11:39;;;;;;;3.33;3.13;;;;;;;;;;5019302;28;20274;-81
2023/02/24 12:14:20;;;;;;;3.05;2.85;;;;;;;;;;5019339;28;20225;-82
2023/02/24 12:16:53;;;;;;;2.35;2.25;;;;;;;;;;5022031;28;20232;-82
2023/02/24 12:19:27;;;;;;;1.95;1.85;;;;;;;;;;5021756;28;20315;-82
2023/02/24 12:22:01;;;;;;;2.60;2.50;;;;;;;;;;5022987;28;20297;-83
2023/02/24 12:24:46;;;;;;;4.72;4.43;;;;;;;;;;5013689;28;20246;-79
2023/02/24 12:27:19;;;;;;;2.35;2.25;;;;;;;;;;5017997;28;20232;-82
2023/02/24 12:29:51;;;;;;;1.65;1.55;;;;;;;;;;5021498;28;20230;-81
2023/02/24 12:32:25;;;;;;;3.53;3.33;;;;;;;;;;5014281;28;20229;-83
2023/02/24 12:35:06;;;;;;;1.85;1.75;;;;;;;;;;5022321;28;20218;-82
2023/02/24 12:37:49;;;;;;;3.20;3.00;;;;;;;;;;5016099;28;20269;-82
2023/02/24 12:40:23;;;;;;;2.70;2.55;;;;;;;;;;5011475;28;20222;-80
2023/02/24 12:42:58;;;;;;;1.80;1.70;;;;;;;;;;5018655;28;20249;-79
2023/02/24 12:45:30;;;;;;;3.63;3.42;;;;;;;;;;5009913;28;20284;-83
2023/02/24 12:48:09;;;;;;;3.40;3.20;;;;;;;;;;5018258;28;20247;-81
2023/02/24 12:50:51;;;;;;;2.80;2.65;;;;;;;;;;5016880;28;20270;-81
2023/02/24 12:53:24;;;;;;;5.60;5.30;;;;;;;;;;5014204;28;20223;-80
2023/02/24 12:56:00;;;;;;;3.63;3.42;;;;;;;;;;5022087;28;20289;-80
2023/02/24 12:58:33;;;;;;;4.55;4.28;;;;;;;;;;5018653;28;20264;-79
2023/02/24 13:01:08;;;;;;;2.17;2.08;;;;;;;;;;5024502;28;20279;-81
2023/02/24 13:03:58;;;;;;;8.40;7.95;;;;;;;;;;5022197;28;20216;-83
2023/02/24 13:06:36;;;;;;;4.82;4.55;;;;;;;;;;5026954;28;20230;-82
2023/02/24 13:09:09;;;;;;;3.22;3.03;;;;;;;;;;5027492;28;20234;-82
2023/02/24 13:11:44;;;;;;;2.90;2.80;;;;;;;;;;5009628;28;20625;-80
2023/02/24 13:14:18;;;;;;;2.38;2.28;;;;;;;;;;5024352;28;20316;-81
2023/02/24 13:16:46;;;;;;;2.13;2.03;;;;;;;;;;5022413;28;20250;-81
2023/02/24 13:19:22;;;;;;;1.55;1.45;;;;;;;;;;5029059;28;20212;-81
2023/02/24 13:22:13;;;;;;;2.38;2.28;;;;;;;;;;5022205;28;20228;-82
2023/02/24 13:25:03;;;;;;;3.03;2.88;;;;;;;;;;5018652;28;20799;-82
2023/02/24 13:27:32;;;;;;;2.28;2.17;;;;;;;;;;5020474;28;20263;-81
2023/02/24 13:30:23;;;;;;;2.10;2.00;;;;;;;;;;5019537;28;20226;-82
2023/02/24 13:33:07;;;;;;;2.22;2.13;;;;;;;;;;5018357;28;20247;-80
2023/02/24 13:35:38;;;;;;;2.45;2.33;;;;;;;;;;5016382;28;20230;-82
2023/02/24 13:38:30;;;;;;;2.15;2.05;;;;;;;;;;5024476;28;20223;-81
2023/02/24 13:41:37;;;;;;;1.88;1.77;;;;;;;;;;5018222;28;20227;-81
2023/02/24 13:44:28;;;;;;;1.50;1.40;;;;;;;;;;5017983;28;20250;-81
2023/02/24 13:47:16;;;;;;;2.72;2.63;;;;;;;;;;5016495;28;20222;-78
2023/02/24 13:49:55;;;;;;;3.50;3.30;;;;;;;;;;5020944;28;20806;-81
2023/02/24 13:52:43;;;;;;;1.20;1.20;;;;;;;;;;5029440;28;20229;-81
2023/02/24 13:55:32;;;;;;;2.28;2.17;;;;;;;;;;5022403;28;20227;-82
2023/02/24 14:01:14;;;;;;;3.70;3.50;;;;;;;;;;5017663;28;20460;-84
2023/02/24 14:03:46;;;;;;;1.85;1.75;;;;;;;;;;4994305;28;20722;-81
2023/02/24 14:06:27;;;;;;;2.28;2.17;;;;;;;;;;5022865;28;20216;-84
2023/02/24 14:12:17;;;;;;;2.08;1.98;;;;;;;;;;5011035;28;20227;-81
2023/02/24 14:15:12;;;;;;;4.88;4.60;;;;;;;;;;5017611;28;20290;-82
2023/02/24 14:17:47;;;;;;;2.45;2.35;;;;;;;;;;5018503;28;20223;-81
2023/02/24 14:20:29;;;;;;;2.08;1.98;;;;;;;;;;5015984;28;20226;-82
2023/02/24 14:23:01;;;;;;;2.53;2.42;;;;;;;;;;5010659;28;20318;-82
2023/02/24 14:25:41;;;;;;;1.30;1.25;;;;;;;;;;5021081;28;20252;-84
2023/02/24 14:28:20;;;;;;;2.40;2.30;;;;;;;;;;5017225;28;20322;-82
2023/02/24 14:33:54;;;;;;;2.70;2.60;;;;;;;;;;5025649;28;20224;-83
2023/02/24 14:36:28;;;;;;;2.22;2.13;;;;;;;;;;5016184;28;20307;-82
2023/02/24 14:39:03;;;;;;;4.25;3.95;;;;;;;;;;5015193;28;20228;-80
2023/02/24 14:41:31;;;;;;;2.42;2.33;;;;;;;;;;5014949;28;20331;-78
2023/02/24 14:46:55;;;;;;;1.25;1.25;;;;;;;;;;5012723;28;20321;-80
2023/02/24 14:49:26;;;;;;;1.83;1.73;;;;;;;;;;5011675;28;20231;-79
2023/02/24 14:51:58;;;;;;;2.22;2.13;;;;;;;;;;5022877;28;20256;-80
2023/02/24 14:54:34;;;;;;;3.28;3.17;;;;;;;;;;5011043;28;20251;-81
2023/02/24 14:57:02;;;;;;;1.52;1.52;;;;;;;;;;5013112;28;20245;-80
2023/02/24 14:59:52;;;;;;;2.75;2.65;;;;;;;;;;5017876;28;20321;-80
2023/02/24 15:02:31;;;;;;;2.58;2.47;;;;;;;;;;5011309;28;20261;-79
2023/02/24 15:05:05;;;;;;;2.28;2.17;;;;;;;;;;5015290;28;20247;-82
2023/02/24 15:07:41;;;;;;;1.98;1.88;;;;;;;;;;5015840;28;20231;-81
2023/02/24 15:10:21;;;;;;;1.60;1.60;;;;;;;;;;5012525;28;20246;-77
2023/02/24 15:12:50;;;;;;;2.38;2.28;;;;;;;;;;5014860;28;20208;-82
2023/02/24 15:15:22;;;;;;;4.25;4.05;;;;;;;;;;5015204;28;20233;-83
2023/02/24 15:17:52;;;;;;;3.17;3.08;;;;;;;;;;5015000;28;20221;-83
2023/02/24 15:20:34;;;;;;;1.55;1.55;;;;;;;;;;5021052;28;20229;-82
2023/02/24 15:23:10;;;;;;;2.25;2.15;;;;;;;;;;5015205;28;20234;-81
2023/02/24 15:25:44;;;;;;;3.10;3.00;;;;;;;;;;5020473;28;20340;-83
2023/02/24 15:28:24;;;;;;;2.35;2.25;;;;;;;;;;5015235;28;20226;-80
2023/02/24 15:31:06;;;;;;;1.65;1.55;;;;;;;;;;5017441;28;20220;-81
2023/02/24 15:33:43;;;;;;;3.08;2.97;;;;;;;;;;5011128;28;20233;-81
2023/02/24 15:36:19;;;;;;;1.77;1.73;;;;;;;;;;5011172;28;20215;-82
2023/02/24 15:38:51;;;;;;;1.30;1.30;;;;;;;;;;5018001;28;20234;-83
2023/02/24 15:41:24;;;;;;;2.78;2.67;;;;;;;;;;5017236;28;20716;-81
2023/02/24 15:44:35;;;;;;;3.20;3.10;;;;;;;;;;5017445;28;20232;-81
2023/02/24 15:47:22;;;;;;;1.77;1.70;;;;;;;;;;5023038;28;20227;-79
2023/02/24 15:49:50;;;;;;;2.78;2.67;;;;;;;;;;5020931;28;20220;-81
2023/02/24 15:52:24;;;;;;;4.45;4.25;;;;;;;;;;5022962;28;20691;-79
2023/02/24 15:54:51;;;;;;;2.35;2.25;;;;;;;;;;5023653;28;20221;-78
2023/02/24 15:57:22;;;;;;;4.03;3.83;;;;;;;;;;5017382;28;20229;-79
2023/02/24 15:59:51;;;;;;;1.90;1.83;;;;;;;;;;5018259;28;20264;-81
2023/02/24 16:02:23;;;;;;;1.35;1.35;;;;;;;;;;5009133;28;20230;-80
2023/02/24 16:04:51;;;;;;;2.85;2.75;;;;;;;;;;5021857;28;20247;-78
2023/02/24 16:07:26;;;;;;;2.58;2.47;;;;;;;;;;5025648;28;20309;-81